sensor_id;sensor_type;location;lat;lon;timestamp;pressure;altitude;pressure_sealevel;temperature;humidity
69842;BME280;57138;51.326;-0.068;2023-05-29T00:02:07;100757.47;;;10.31;66.00
69842;BME280;57138;51.326;-0.068;2023-05-29T00:04:32;100769.34;;;10.29;66.10
69842;BME280;57138;51.326;-0.068;2023-05-29T00:06:57;100761.84;;;10.24;66.21
69842;BME280;57138;51.326;-0.068;2023-05-29T00:09:23;100756.34;;;10.17;66.93
69842;BME280;57138;51.326;-0.068;2023-05-29T00:11:49;100759.53;;;10.13;66.32
69842;BME280;57138;51.326;-0.068;2023-05-29T00:14:18;100770.56;;;10.10;66.71
69842;BME280;57138;51.326;-0.068;2023-05-29T00:16:45;100767.25;;;10.07;66.39
69842;BME280;57138;51.326;-0.068;2023-05-29T00:19:12;100769.59;;;10.02;66.85
69842;BME280;57138;51.326;-0.068;2023-05-29T00:21:38;100772.44;;;10.01;67.16
69842;BME280;57138;51.326;-0.068;2023-05-29T00:24:03;100771.13;;;9.97;67.12
69842;BME280;57138;51.326;-0.068;2023-05-29T00:26:29;100773.94;;;9.95;67.46
69842;BME280;57138;51.326;-0.068;2023-05-29T00:28:54;100782.13;;;9.94;68.06
69842;BME280;57138;51.326;-0.068;2023-05-29T00:31:19;100788.00;;;9.89;67.85
69842;BME280;57138;51.326;-0.068;2023-05-29T00:33:45;100780.66;;;9.83;68.20
69842;BME280;57138;51.326;-0.068;2023-05-29T00:36:10;100777.66;;;9.78;67.89
69842;BME280;57138;51.326;-0.068;2023-05-29T00:38:36;100782.34;;;9.76;68.94
69842;BME280;57138;51.326;-0.068;2023-05-29T00:41:01;100771.00;;;9.74;68.61
69842;BME280;57138;51.326;-0.068;2023-05-29T00:43:27;100771.31;;;9.70;69.04
69842;BME280;57138;51.326;-0.068;2023-05-29T00:45:53;100774.50;;;9.66;68.93
69842;BME280;57138;51.326;-0.068;2023-05-29T00:48:18;100769.50;;;9.63;69.17
69842;BME280;57138;51.326;-0.068;2023-05-29T00:50:44;100775.69;;;9.63;69.29
69842;BME280;57138;51.326;-0.068;2023-05-29T00:53:10;100769.66;;;9.61;69.36
69842;BME280;57138;51.326;-0.068;2023-05-29T00:55:36;100777.03;;;9.59;69.36
69842;BME280;57138;51.326;-0.068;2023-05-29T00:58:01;100767.66;;;9.55;69.26
69842;BME280;57138;51.326;-0.068;2023-05-29T01:00:27;100766.53;;;9.49;69.41
69842;BME280;57138;51.326;-0.068;2023-05-29T01:02:53;100758.03;;;9.46;69.90
69842;BME280;57138;51.326;-0.068;2023-05-29T01:05:21;100763.72;;;9.43;69.87
69842;BME280;57138;51.326;-0.068;2023-05-29T01:07:46;100769.88;;;9.43;69.88
69842;BME280;57138;51.326;-0.068;2023-05-29T01:10:13;100759.03;;;9.37;71.33
69842;BME280;57138;51.326;-0.068;2023-05-29T01:12:50;100766.03;;;9.38;71.16
69842;BME280;57138;51.326;-0.068;2023-05-29T01:18:11;100761.50;;;9.30;70.95
69842;BME280;57138;51.326;-0.068;2023-05-29T01:23:36;100765.72;;;9.24;71.72
69842;BME280;57138;51.326;-0.068;2023-05-29T01:28:57;100767.53;;;9.15;71.65
69842;BME280;57138;51.326;-0.068;2023-05-29T01:31:26;100771.69;;;9.18;71.24
69842;BME280;57138;51.326;-0.068;2023-05-29T01:33:57;100770.34;;;9.14;72.27
69842;BME280;57138;51.326;-0.068;2023-05-29T01:36:24;100765.19;;;9.12;72.36
69842;BME280;57138;51.326;-0.068;2023-05-29T01:38:51;100767.34;;;9.09;72.07
69842;BME280;57138;51.326;-0.068;2023-05-29T01:41:17;100755.34;;;9.05;72.22
69842;BME280;57138;51.326;-0.068;2023-05-29T01:43:44;100756.50;;;9.02;72.41
69842;BME280;57138;51.326;-0.068;2023-05-29T01:46:12;100773.34;;;9.03;72.55
69842;BME280;57138;51.326;-0.068;2023-05-29T01:48:38;100764.66;;;9.00;72.48
69842;BME280;57138;51.326;-0.068;2023-05-29T01:51:03;100761.16;;;9.00;73.04
69842;BME280;57138;51.326;-0.068;2023-05-29T01:53:29;100756.81;;;8.99;73.07
69842;BME280;57138;51.326;-0.068;2023-05-29T01:55:55;100763.34;;;8.96;73.44
69842;BME280;57138;51.326;-0.068;2023-05-29T01:58:21;100758.34;;;8.93;73.15
69842;BME280;57138;51.326;-0.068;2023-05-29T02:00:47;100744.34;;;8.91;73.14
69842;BME280;57138;51.326;-0.068;2023-05-29T02:03:13;100763.34;;;8.88;73.65
69842;BME280;57138;51.326;-0.068;2023-05-29T02:05:38;100740.81;;;8.82;73.56
69842;BME280;57138;51.326;-0.068;2023-05-29T02:08:04;100756.31;;;8.87;73.20
69842;BME280;57138;51.326;-0.068;2023-05-29T02:10:30;100757.31;;;8.86;72.63
69842;BME280;57138;51.326;-0.068;2023-05-29T02:12:57;100757.31;;;8.86;73.43
69842;BME280;57138;51.326;-0.068;2023-05-29T02:15:22;100768.31;;;8.83;73.57
69842;BME280;57138;51.326;-0.068;2023-05-29T02:17:48;100751.66;;;8.81;73.49
69842;BME280;57138;51.326;-0.068;2023-05-29T02:20:15;100750.66;;;8.82;73.32
69842;BME280;57138;51.326;-0.068;2023-05-29T02:22:41;100750.81;;;8.80;73.87
69842;BME280;57138;51.326;-0.068;2023-05-29T02:25:07;100750.97;;;8.79;73.92
69842;BME280;57138;51.326;-0.068;2023-05-29T02:27:32;100760.47;;;8.81;73.60
69842;BME280;57138;51.326;-0.068;2023-05-29T02:29:58;100765.97;;;8.80;73.13
69842;BME280;57138;51.326;-0.068;2023-05-29T02:32:24;100753.81;;;8.77;74.02
69842;BME280;57138;51.326;-0.068;2023-05-29T02:34:51;100763.13;;;8.73;73.19
69842;BME280;57138;51.326;-0.068;2023-05-29T02:37:17;100758.63;;;8.74;73.37
69842;BME280;57138;51.326;-0.068;2023-05-29T02:39:43;100754.94;;;8.67;74.26
69842;BME280;57138;51.326;-0.068;2023-05-29T02:42:08;100741.09;;;8.63;73.96
69842;BME280;57138;51.326;-0.068;2023-05-29T02:44:34;100748.09;;;8.64;73.96
69842;BME280;57138;51.326;-0.068;2023-05-29T02:46:59;100747.44;;;8.62;74.04
69842;BME280;57138;51.326;-0.068;2023-05-29T02:49:25;100746.25;;;8.56;75.63
69842;BME280;57138;51.326;-0.068;2023-05-29T02:51:51;100753.25;;;8.57;74.08
69842;BME280;57138;51.326;-0.068;2023-05-29T02:54:18;100747.25;;;8.55;74.25
69842;BME280;57138;51.326;-0.068;2023-05-29T02:56:43;100736.41;;;8.49;74.29
69842;BME280;57138;51.326;-0.068;2023-05-29T02:59:09;100752.22;;;8.50;74.05
69842;BME280;57138;51.326;-0.068;2023-05-29T03:01:34;100741.88;;;8.47;74.22
69842;BME280;57138;51.326;-0.068;2023-05-29T03:04:00;100750.34;;;8.42;74.31
69842;BME280;57138;51.326;-0.068;2023-05-29T03:06:25;100752.88;;;8.44;74.14
69842;BME280;57138;51.326;-0.068;2023-05-29T03:08:50;100759.34;;;8.41;74.36
69842;BME280;57138;51.326;-0.068;2023-05-29T03:11:16;100759.13;;;8.35;74.79
69842;BME280;57138;51.326;-0.068;2023-05-29T03:13:42;100755.16;;;8.31;74.57
69842;BME280;57138;51.326;-0.068;2023-05-29T03:16:08;100752.47;;;8.31;74.77
69842;BME280;57138;51.326;-0.068;2023-05-29T03:18:34;100758.13;;;8.27;74.94
69842;BME280;57138;51.326;-0.068;2023-05-29T03:21:00;100756.59;;;8.25;74.63
69842;BME280;57138;51.326;-0.068;2023-05-29T03:23:25;100752.75;;;8.19;75.47
69842;BME280;57138;51.326;-0.068;2023-05-29T03:25:50;100748.75;;;8.15;75.33
69842;BME280;57138;51.326;-0.068;2023-05-29T03:28:16;100748.75;;;8.15;74.82
69842;BME280;57138;51.326;-0.068;2023-05-29T03:30:41;100744.88;;;8.09;75.60
69842;BME280;57138;51.326;-0.068;2023-05-29T03:33:06;100738.72;;;8.09;75.40
69842;BME280;57138;51.326;-0.068;2023-05-29T03:35:32;100740.69;;;8.07;74.69
69842;BME280;57138;51.326;-0.068;2023-05-29T03:37:58;100731.00;;;7.98;74.93
69842;BME280;57138;51.326;-0.068;2023-05-29T03:40:23;100746.00;;;7.99;74.75
69842;BME280;57138;51.326;-0.068;2023-05-29T03:42:49;100743.97;;;7.92;75.81
69842;BME280;57138;51.326;-0.068;2023-05-29T03:45:14;100752.09;;;7.91;75.03
69842;BME280;57138;51.326;-0.068;2023-05-29T03:47:40;100749.91;;;7.86;75.44
69842;BME280;57138;51.326;-0.068;2023-05-29T03:50:06;100741.88;;;7.78;75.82
69842;BME280;57138;51.326;-0.068;2023-05-29T03:52:31;100766.53;;;7.80;75.71
69842;BME280;57138;51.326;-0.068;2023-05-29T03:54:57;100747.38;;;7.77;75.78
69842;BME280;57138;51.326;-0.068;2023-05-29T03:57:22;100747.53;;;7.75;75.41
69842;BME280;57138;51.326;-0.068;2023-05-29T03:59:48;100755.81;;;7.72;75.82
69842;BME280;57138;51.326;-0.068;2023-05-29T04:02:14;100753.47;;;7.69;75.93
69842;BME280;57138;51.326;-0.068;2023-05-29T04:04:39;100745.44;;;7.61;75.73
69842;BME280;57138;51.326;-0.068;2023-05-29T04:07:05;100766.13;;;7.67;75.46
69842;BME280;57138;51.326;-0.068;2023-05-29T04:09:32;100764.59;;;7.64;76.90
69842;BME280;57138;51.326;-0.068;2023-05-29T04:11:58;100761.25;;;7.62;75.67
69842;BME280;57138;51.326;-0.068;2023-05-29T04:14:25;100770.06;;;7.63;75.57
69842;BME280;57138;51.326;-0.068;2023-05-29T04:16:50;100772.56;;;7.64;75.83
69842;BME280;57138;51.326;-0.068;2023-05-29T04:19:15;100764.75;;;7.63;75.43
69842;BME280;57138;51.326;-0.068;2023-05-29T04:21:41;100768.06;;;7.65;75.50
69842;BME280;57138;51.326;-0.068;2023-05-29T04:24:07;100758.44;;;7.64;75.45
69842;BME280;57138;51.326;-0.068;2023-05-29T04:26:33;100755.09;;;7.62;75.34
69842;BME280;57138;51.326;-0.068;2023-05-29T04:28:59;100761.41;;;7.61;75.22
69842;BME280;57138;51.326;-0.068;2023-05-29T04:31:25;100753.34;;;7.52;75.45
69842;BME280;57138;51.326;-0.068;2023-05-29T04:33:52;100770.38;;;7.60;75.81
69842;BME280;57138;51.326;-0.068;2023-05-29T04:36:23;100772.38;;;7.58;75.17
69842;BME280;57138;51.326;-0.068;2023-05-29T04:38:51;100763.22;;;7.60;75.47
69842;BME280;57138;51.326;-0.068;2023-05-29T04:41:16;100764.38;;;7.58;75.50
69842;BME280;57138;51.326;-0.068;2023-05-29T04:43:42;100770.38;;;7.60;75.17
69842;BME280;57138;51.326;-0.068;2023-05-29T04:46:07;100774.41;;;7.64;75.28
69842;BME280;57138;51.326;-0.068;2023-05-29T04:48:40;100772.72;;;7.63;75.39
69842;BME280;57138;51.326;-0.068;2023-05-29T04:51:09;100775.91;;;7.66;75.02
69842;BME280;57138;51.326;-0.068;2023-05-29T04:53:39;100771.44;;;7.67;75.24
69842;BME280;57138;51.326;-0.068;2023-05-29T04:56:06;100778.09;;;7.71;74.88
69842;BME280;57138;51.326;-0.068;2023-05-29T04:58:32;100779.13;;;7.70;75.17
69842;BME280;57138;51.326;-0.068;2023-05-29T05:00:58;100782.28;;;7.73;74.48
69842;BME280;57138;51.326;-0.068;2023-05-29T05:03:24;100788.13;;;7.77;74.63
69842;BME280;57138;51.326;-0.068;2023-05-29T05:05:51;100793.13;;;7.80;74.65
69842;BME280;57138;51.326;-0.068;2023-05-29T05:08:17;100795.50;;;7.83;74.86
69842;BME280;57138;51.326;-0.068;2023-05-29T05:10:43;100779.53;;;7.83;75.09
69842;BME280;57138;51.326;-0.068;2023-05-29T05:13:08;100795.75;;;7.98;74.95
69842;BME280;57138;51.326;-0.068;2023-05-29T05:15:34;100785.63;;;8.02;74.47
69842;BME280;57138;51.326;-0.068;2023-05-29T05:18:00;100799.81;;;8.10;74.29
69842;BME280;57138;51.326;-0.068;2023-05-29T05:20:25;100801.16;;;8.15;74.11
69842;BME280;57138;51.326;-0.068;2023-05-29T05:22:51;100798.56;;;8.23;73.49
69842;BME280;57138;51.326;-0.068;2023-05-29T05:25:17;100801.41;;;8.30;73.72
69842;BME280;57138;51.326;-0.068;2023-05-29T05:27:42;100799.09;;;8.35;73.34
69842;BME280;57138;51.326;-0.068;2023-05-29T05:30:08;100804.47;;;8.43;73.34
69842;BME280;57138;51.326;-0.068;2023-05-29T05:32:34;100803.69;;;8.51;73.35
69842;BME280;57138;51.326;-0.068;2023-05-29T05:35:00;100801.91;;;8.68;73.35
69842;BME280;57138;51.326;-0.068;2023-05-29T05:37:25;100810.97;;;8.83;72.47
69842;BME280;57138;51.326;-0.068;2023-05-29T05:39:51;100801.00;;;8.93;72.54
69842;BME280;57138;51.326;-0.068;2023-05-29T05:42:19;100797.84;;;8.98;71.59
69842;BME280;57138;51.326;-0.068;2023-05-29T05:44:45;100811.03;;;8.99;71.71
69842;BME280;57138;51.326;-0.068;2023-05-29T05:47:11;100811.69;;;9.10;71.77
69842;BME280;57138;51.326;-0.068;2023-05-29T05:49:36;100805.69;;;9.16;71.41
69842;BME280;57138;51.326;-0.068;2023-05-29T05:52:02;100792.72;;;9.21;71.41
69842;BME280;57138;51.326;-0.068;2023-05-29T05:54:27;100809.91;;;9.35;70.73
69842;BME280;57138;51.326;-0.068;2023-05-29T05:56:52;100805.56;;;9.42;70.89
69842;BME280;57138;51.326;-0.068;2023-05-29T05:59:18;100809.25;;;9.49;70.03
69842;BME280;57138;51.326;-0.068;2023-05-29T06:01:43;100807.88;;;9.53;69.74
69842;BME280;57138;51.326;-0.068;2023-05-29T06:04:09;100827.91;;;9.66;68.90
69842;BME280;57138;51.326;-0.068;2023-05-29T06:06:35;100825.41;;;9.73;69.60
69842;BME280;57138;51.326;-0.068;2023-05-29T06:09:00;100820.06;;;9.81;68.64
69842;BME280;57138;51.326;-0.068;2023-05-29T06:11:26;100836.25;;;9.87;68.14
69842;BME280;57138;51.326;-0.068;2023-05-29T06:13:52;100835.56;;;9.94;68.37
69842;BME280;57138;51.326;-0.068;2023-05-29T06:16:18;100819.22;;;9.88;68.16
69842;BME280;57138;51.326;-0.068;2023-05-29T06:18:44;100830.06;;;9.95;68.55
69842;BME280;57138;51.326;-0.068;2023-05-29T06:21:09;100846.41;;;9.92;68.26
69842;BME280;57138;51.326;-0.068;2023-05-29T06:23:35;100834.75;;;9.85;67.67
69842;BME280;57138;51.326;-0.068;2023-05-29T06:26:02;100839.09;;;9.94;68.03
69842;BME280;57138;51.326;-0.068;2023-05-29T06:28:29;100843.94;;;9.99;67.95
69842;BME280;57138;51.326;-0.068;2023-05-29T06:30:55;100841.06;;;10.08;68.15
69842;BME280;57138;51.326;-0.068;2023-05-29T06:33:20;100865.75;;;10.27;67.28
69842;BME280;57138;51.326;-0.068;2023-05-29T06:35:47;100858.72;;;10.34;66.83
69842;BME280;57138;51.326;-0.068;2023-05-29T06:38:15;100842.00;;;10.49;66.66
69842;BME280;57138;51.326;-0.068;2023-05-29T06:40:41;100844.25;;;10.68;66.45
69842;BME280;57138;51.326;-0.068;2023-05-29T06:43:06;100863.28;;;10.73;64.27
69842;BME280;57138;51.326;-0.068;2023-05-29T06:45:32;100861.56;;;10.81;65.23
69842;BME280;57138;51.326;-0.068;2023-05-29T06:47:57;100863.28;;;10.73;64.27
69842;BME280;57138;51.326;-0.068;2023-05-29T06:50:22;100861.97;;;10.69;64.50
69842;BME280;57138;51.326;-0.068;2023-05-29T06:52:48;100854.19;;;10.83;64.82
69842;BME280;57138;51.326;-0.068;2023-05-29T06:55:13;100853.03;;;10.85;64.46
69842;BME280;57138;51.326;-0.068;2023-05-29T06:57:39;100852.22;;;10.85;64.63
69842;BME280;57138;51.326;-0.068;2023-05-29T07:00:06;100855.19;;;10.90;64.84
69842;BME280;57138;51.326;-0.068;2023-05-29T07:02:32;100851.81;;;10.96;64.35
69842;BME280;57138;51.326;-0.068;2023-05-29T07:04:58;100854.78;;;11.01;64.13
69842;BME280;57138;51.326;-0.068;2023-05-29T07:07:23;100849.53;;;11.08;63.90
69842;BME280;57138;51.326;-0.068;2023-05-29T07:09:48;100844.63;;;11.20;64.25
69842;BME280;57138;51.326;-0.068;2023-05-29T07:12:14;100848.28;;;11.27;63.74
69842;BME280;57138;51.326;-0.068;2023-05-29T07:14:40;100862.31;;;11.29;63.24
69842;BME280;57138;51.326;-0.068;2023-05-29T07:17:05;100857.06;;;11.36;63.69
69842;BME280;57138;51.326;-0.068;2023-05-29T07:19:31;100850.53;;;11.38;62.92
69842;BME280;57138;51.326;-0.068;2023-05-29T07:21:59;100854.22;;;11.37;62.62
69842;BME280;57138;51.326;-0.068;2023-05-29T07:24:25;100864.09;;;11.37;62.76
69842;BME280;57138;51.326;-0.068;2023-05-29T07:26:52;100869.34;;;11.30;62.42
69842;BME280;57138;51.326;-0.068;2023-05-29T07:29:18;100867.31;;;11.32;62.56
69842;BME280;57138;51.326;-0.068;2023-05-29T07:31:46;100861.25;;;11.38;63.22
69842;BME280;57138;51.326;-0.068;2023-05-29T07:34:11;100857.31;;;11.49;62.97
69842;BME280;57138;51.326;-0.068;2023-05-29T07:36:56;100848.69;;;11.62;62.68
69842;BME280;57138;51.326;-0.068;2023-05-29T07:39:21;100859.50;;;11.68;62.40
69842;BME280;57138;51.326;-0.068;2023-05-29T07:41:47;100862.94;;;11.77;62.70
69842;BME280;57138;51.326;-0.068;2023-05-29T07:44:12;100858.25;;;11.79;62.02
69842;BME280;57138;51.326;-0.068;2023-05-29T07:46:37;100849.56;;;11.77;61.95
69842;BME280;57138;51.326;-0.068;2023-05-29T07:49:03;100851.22;;;11.78;61.54
69842;BME280;57138;51.326;-0.068;2023-05-29T07:51:28;100861.94;;;11.78;62.14
69842;BME280;57138;51.326;-0.068;2023-05-29T07:53:57;100859.91;;;11.80;62.36
69842;BME280;57138;51.326;-0.068;2023-05-29T07:56:22;100864.56;;;11.86;61.87
69842;BME280;57138;51.326;-0.068;2023-05-29T07:58:47;100862.34;;;11.90;62.38
69842;BME280;57138;51.326;-0.068;2023-05-29T08:01:13;100874.84;;;11.98;61.92
69842;BME280;57138;51.326;-0.068;2023-05-29T08:03:41;100866.09;;;12.04;61.34
69842;BME280;57138;51.326;-0.068;2023-05-29T08:06:07;100863.03;;;12.07;60.46
69842;BME280;57138;51.326;-0.068;2023-05-29T08:08:32;100872.59;;;12.10;61.50
69842;BME280;57138;51.326;-0.068;2023-05-29T08:10:58;100867.94;;;12.18;61.21
69842;BME280;57138;51.326;-0.068;2023-05-29T08:13:23;100872.22;;;12.28;60.89
69842;BME280;57138;51.326;-0.068;2023-05-29T08:15:49;100874.84;;;12.36;60.77
69842;BME280;57138;51.326;-0.068;2023-05-29T08:18:14;100865.75;;;12.37;60.79
69842;BME280;57138;51.326;-0.068;2023-05-29T08:20:39;100868.81;;;12.34;59.84
69842;BME280;57138;51.326;-0.068;2023-05-29T08:23:05;100865.75;;;12.37;60.31
69842;BME280;57138;51.326;-0.068;2023-05-29T08:25:31;100864.94;;;12.36;59.94
69842;BME280;57138;51.326;-0.068;2023-05-29T08:27:57;100874.09;;;12.42;59.52
69842;BME280;57138;51.326;-0.068;2023-05-29T08:30:22;100867.78;;;12.35;59.61
69842;BME280;57138;51.326;-0.068;2023-05-29T08:32:47;100880.56;;;12.33;58.81
69842;BME280;57138;51.326;-0.068;2023-05-29T08:35:13;100868.34;;;12.30;59.20
69842;BME280;57138;51.326;-0.068;2023-05-29T08:37:39;100878.53;;;12.35;59.25
69842;BME280;57138;51.326;-0.068;2023-05-29T08:40:05;100882.22;;;12.34;59.01
69842;BME280;57138;51.326;-0.068;2023-05-29T08:42:37;100894.25;;;12.38;58.82
69842;BME280;57138;51.326;-0.068;2023-05-29T08:45:06;100879.84;;;12.39;58.46
69842;BME280;57138;51.326;-0.068;2023-05-29T08:47:33;100879.09;;;12.45;58.26
69842;BME280;57138;51.326;-0.068;2023-05-29T08:50:00;100881.31;;;12.56;58.01
69842;BME280;57138;51.326;-0.068;2023-05-29T08:52:26;100880.56;;;12.63;58.62
69842;BME280;57138;51.326;-0.068;2023-05-29T08:54:53;100883.13;;;12.71;58.32
69842;BME280;57138;51.326;-0.068;2023-05-29T08:57:20;100885.72;;;12.79;58.04
69842;BME280;57138;51.326;-0.068;2023-05-29T08:59:47;100882.47;;;12.84;57.84
69842;BME280;57138;51.326;-0.068;2023-05-29T09:02:16;100876.72;;;12.87;58.10
69842;BME280;57138;51.326;-0.068;2023-05-29T09:04:42;100894.59;;;12.94;57.73
69842;BME280;57138;51.326;-0.068;2023-05-29T09:07:12;100884.50;;;12.97;57.73
69842;BME280;57138;51.326;-0.068;2023-05-29T09:09:39;100881.81;;;12.97;57.13
69842;BME280;57138;51.326;-0.068;2023-05-29T09:12:06;100880.34;;;12.94;56.96
69842;BME280;57138;51.326;-0.068;2023-05-29T09:14:40;100893.47;;;13.04;56.71
69842;BME280;57138;51.326;-0.068;2023-05-29T09:17:06;100874.03;;;13.02;56.85
69842;BME280;57138;51.326;-0.068;2023-05-29T09:19:34;100891.50;;;13.12;57.20
69842;BME280;57138;51.326;-0.068;2023-05-29T09:22:07;100915.75;;;13.19;56.09
69842;BME280;57138;51.326;-0.068;2023-05-29T09:24:33;100886.19;;;13.19;56.00
69842;BME280;57138;51.326;-0.068;2023-05-29T09:27:00;100879.16;;;13.18;56.51
69842;BME280;57138;51.326;-0.068;2023-05-29T09:29:32;100889.44;;;13.29;56.47
69842;BME280;57138;51.326;-0.068;2023-05-29T09:31:58;100878.31;;;13.33;55.38
69842;BME280;57138;51.326;-0.068;2023-05-29T09:34:24;100893.69;;;13.39;55.55
69842;BME280;57138;51.326;-0.068;2023-05-29T09:36:52;100902.63;;;13.46;55.72
69842;BME280;57138;51.326;-0.068;2023-05-29T09:39:18;100906.09;;;13.61;54.80
69842;BME280;57138;51.326;-0.068;2023-05-29T09:41:44;100889.44;;;13.94;54.61
69842;BME280;57138;51.326;-0.068;2023-05-29T09:44:14;100885.66;;;14.10;53.90
69842;BME280;57138;51.326;-0.068;2023-05-29T09:46:41;100888.00;;;14.20;54.08
69842;BME280;57138;51.326;-0.068;2023-05-29T09:49:12;100892.13;;;14.23;52.80
69842;BME280;57138;51.326;-0.068;2023-05-29T09:51:38;100881.28;;;14.09;52.79
69842;BME280;57138;51.326;-0.068;2023-05-29T09:54:17;100903.00;;;14.08;52.25
69842;BME280;57138;51.326;-0.068;2023-05-29T09:56:44;100885.47;;;14.12;52.56
69842;BME280;57138;51.326;-0.068;2023-05-29T09:59:12;100883.53;;;14.34;52.89
69842;BME280;57138;51.326;-0.068;2023-05-29T10:01:43;100883.13;;;14.65;51.78
69842;BME280;57138;51.326;-0.068;2023-05-29T10:04:12;100891.78;;;15.02;51.56
69842;BME280;57138;51.326;-0.068;2023-05-29T10:06:41;100900.16;;;15.34;50.74
69842;BME280;57138;51.326;-0.068;2023-05-29T10:09:12;100892.34;;;15.53;50.31
69842;BME280;57138;51.326;-0.068;2023-05-29T10:11:42;100892.56;;;15.71;49.34
69842;BME280;57138;51.326;-0.068;2023-05-29T10:14:09;100898.84;;;15.78;48.35
69842;BME280;57138;51.326;-0.068;2023-05-29T10:16:42;100882.41;;;15.73;48.24
69842;BME280;57138;51.326;-0.068;2023-05-29T10:19:13;100891.94;;;15.69;48.25
69842;BME280;57138;51.326;-0.068;2023-05-29T10:21:42;100889.84;;;15.58;48.21
69842;BME280;57138;51.326;-0.068;2023-05-29T10:24:10;100892.13;;;15.61;49.00
69842;BME280;57138;51.326;-0.068;2023-05-29T10:26:41;100888.84;;;15.72;49.26
69842;BME280;57138;51.326;-0.068;2023-05-29T10:29:29;100900.22;;;15.61;47.86
69842;BME280;57138;51.326;-0.068;2023-05-29T10:32:21;100894.78;;;15.34;48.89
69842;BME280;57138;51.326;-0.068;2023-05-29T10:35:23;100908.44;;;15.33;48.08
69842;BME280;57138;51.326;-0.068;2023-05-29T10:37:59;100901.84;;;15.35;47.68
69842;BME280;57138;51.326;-0.068;2023-05-29T10:40:28;100910.13;;;15.47;47.78
69842;BME280;57138;51.326;-0.068;2023-05-29T10:42:54;100900.22;;;15.61;48.56
69842;BME280;57138;51.326;-0.068;2023-05-29T10:47:55;100901.06;;;15.68;47.33
69842;BME280;57138;51.326;-0.068;2023-05-29T10:50:45;100902.16;;;15.80;47.31
69842;BME280;57138;51.326;-0.068;2023-05-29T10:53:16;100899.03;;;15.97;47.78
69842;BME280;57138;51.326;-0.068;2023-05-29T10:55:42;100890.09;;;16.03;46.50
69842;BME280;57138;51.326;-0.068;2023-05-29T10:58:15;100904.44;;;16.10;46.54
69842;BME280;57138;51.326;-0.068;2023-05-29T11:00:44;100906.91;;;16.12;45.72
69842;BME280;57138;51.326;-0.068;2023-05-29T11:03:21;100888.66;;;15.94;46.65
69842;BME280;57138;51.326;-0.068;2023-05-29T11:11:11;100901.28;;;15.73;47.57
69842;BME280;57138;51.326;-0.068;2023-05-29T11:13:38;100896.75;;;15.80;47.50
69842;BME280;57138;51.326;-0.068;2023-05-29T11:16:19;100890.75;;;16.05;48.30
69842;BME280;57138;51.326;-0.068;2023-05-29T11:18:47;100886.97;;;16.26;47.77
69842;BME280;57138;51.326;-0.068;2023-05-29T11:24:26;100895.59;;;16.75;46.64
69842;BME280;57138;51.326;-0.068;2023-05-29T11:26:53;100900.53;;;16.92;47.17
69842;BME280;57138;51.326;-0.068;2023-05-29T11:29:24;100914.34;;;17.15;46.40
69842;BME280;57138;51.326;-0.068;2023-05-29T11:32:06;100902.94;;;17.13;44.79
69842;BME280;57138;51.326;-0.068;2023-05-29T11:34:40;100890.47;;;17.12;46.03
69842;BME280;57138;51.326;-0.068;2023-05-29T11:37:06;100906.66;;;17.19;45.19
69842;BME280;57138;51.326;-0.068;2023-05-29T11:39:36;100896.25;;;17.22;45.46
69842;BME280;57138;51.326;-0.068;2023-05-29T11:42:02;100890.84;;;17.22;45.39
69842;BME280;57138;51.326;-0.068;2023-05-29T11:44:30;100894.59;;;17.21;46.06
69842;BME280;57138;51.326;-0.068;2023-05-29T11:47:05;100913.75;;;17.13;46.02
69842;BME280;57138;51.326;-0.068;2023-05-29T11:49:35;100895.94;;;16.99;45.71
69842;BME280;57138;51.326;-0.068;2023-05-29T11:52:20;100896.25;;;16.70;45.83
69842;BME280;57138;51.326;-0.068;2023-05-29T11:54:49;100895.84;;;16.60;46.45
69842;BME280;57138;51.326;-0.068;2023-05-29T11:57:19;100888.13;;;16.64;46.54
69842;BME280;57138;51.326;-0.068;2023-05-29T11:59:45;100897.31;;;16.63;46.26
69842;BME280;57138;51.326;-0.068;2023-05-29T12:02:11;100893.13;;;16.60;46.27
69842;BME280;57138;51.326;-0.068;2023-05-29T12:04:37;100885.06;;;16.53;45.79
69842;BME280;57138;51.326;-0.068;2023-05-29T12:07:17;100889.03;;;16.44;46.00
69842;BME280;57138;51.326;-0.068;2023-05-29T12:09:43;100882.19;;;16.35;45.41
69842;BME280;57138;51.326;-0.068;2023-05-29T12:12:08;100881.56;;;16.33;46.40
69842;BME280;57138;51.326;-0.068;2023-05-29T12:14:33;100887.75;;;16.47;46.06
69842;BME280;57138;51.326;-0.068;2023-05-29T12:16:59;100872.41;;;16.47;46.14
69842;BME280;57138;51.326;-0.068;2023-05-29T12:19:25;100881.53;;;16.46;45.57
69842;BME280;57138;51.326;-0.068;2023-05-29T12:21:51;100877.00;;;16.40;46.73
69842;BME280;57138;51.326;-0.068;2023-05-29T12:24:18;100875.31;;;16.39;46.85
69842;BME280;57138;51.326;-0.068;2023-05-29T12:26:44;100873.41;;;16.53;46.73
69842;BME280;57138;51.326;-0.068;2023-05-29T12:29:09;100895.66;;;16.55;46.36
69842;BME280;57138;51.326;-0.068;2023-05-29T12:31:35;100878.81;;;16.60;47.40
69842;BME280;57138;51.326;-0.068;2023-05-29T12:34:06;100869.84;;;16.73;46.83
69842;BME280;57138;51.326;-0.068;2023-05-29T12:36:32;100878.97;;;16.78;46.50
69842;BME280;57138;51.326;-0.068;2023-05-29T12:38:58;100882.66;;;16.84;46.84
69842;BME280;57138;51.326;-0.068;2023-05-29T12:41:28;100918.00;;;16.82;45.26
69842;BME280;57138;51.326;-0.068;2023-05-29T12:43:57;100881.25;;;16.75;45.96
69842;BME280;57138;51.326;-0.068;2023-05-29T12:46:25;100889.81;;;16.65;46.04
69842;BME280;57138;51.326;-0.068;2023-05-29T12:48:53;100871.56;;;16.53;45.62
69842;BME280;57138;51.326;-0.068;2023-05-29T12:51:26;100867.78;;;16.68;45.60
69842;BME280;57138;51.326;-0.068;2023-05-29T12:53:52;100877.72;;;16.74;45.28
69842;BME280;57138;51.326;-0.068;2023-05-29T12:56:24;100902.84;;;16.81;45.88
69842;BME280;57138;51.326;-0.068;2023-05-29T12:58:51;100894.31;;;16.84;46.26
69842;BME280;57138;51.326;-0.068;2023-05-29T13:01:17;100870.22;;;16.83;44.98
69842;BME280;57138;51.326;-0.068;2023-05-29T13:03:42;100869.16;;;16.84;45.40
69842;BME280;57138;51.326;-0.068;2023-05-29T13:06:08;100881.03;;;16.89;45.83